Reese, Texas
Current Conditions -  °F | °C
As of 11:55 PM on Saturday 22 Nov 2014 (Local Time) from KJSO Reporting Station
Heavy Rain Heavy Rain  
Wind Chill: 61°   Ceiling: 1800
Heat Index: 61°   Visibility: 3mi
Dew Point: 60°   Wind: 7mph
Humidity: 97%   Direction: 70°ENE
Pressure: 29.75"   Gusts: NA
Location:  31.9649°N, 95.3036°W
Report Text: KJSO 230555Z AUTO 07006KT 3SM +RA BKN018 BKN024 OVC031 16/15 A2975 RMK AO2 P0020 T01600155
Loading
Personal Weather Stations






























Interactive Weather Map New forecast layout! Learn more

10-Day Weather Forecast

Advertisements
Track Severe Weather on mobile